createdAt,value
2017-11-13T00:00:42.713Z,84.08
2017-11-13T00:01:52.846Z,83.61
2017-11-13T00:03:02.946Z,84.08
2017-11-13T00:04:13.043Z,84.17
2017-11-13T00:05:22.807Z,83.61
2017-11-13T00:06:32.893Z,84.08
2017-11-13T00:07:43.311Z,83.51
2017-11-13T00:08:53.400Z,83.51
2017-11-13T00:10:03.797Z,83.51
2017-11-13T00:11:13.878Z,83.7
2017-11-13T00:12:24.298Z,84.08
2017-11-13T00:13:34.371Z,84.08
2017-11-13T00:14:44.123Z,83.7
2017-11-13T00:15:53.864Z,83.7
2017-11-13T00:17:03.927Z,83.7
2017-11-13T00:18:14.375Z,83.7
2017-11-13T00:19:24.814Z,83.51
2017-11-13T00:20:35.222Z,83.32
2017-11-13T00:21:45.664Z,82.99
2017-11-13T00:22:56.083Z,83.32
2017-11-13T00:24:05.842Z,83.65
2017-11-13T00:25:15.958Z,83.56
2017-11-13T00:26:26.381Z,83.65
2017-11-13T00:27:36.788Z,83.47
2017-11-13T00:28:47.205Z,83.13
2017-11-13T00:29:57.630Z,82.99
2017-11-13T00:31:07.777Z,83.37
2017-11-13T00:32:17.520Z,83.65
2017-11-13T00:33:27.930Z,83.37
2017-11-13T00:34:38.003Z,83.18
2017-11-13T00:35:47.737Z,83.37
2017-11-13T00:36:57.826Z,83.28
2017-11-13T00:38:07.228Z,83.28
2017-11-13T00:39:17.298Z,82.99
2017-11-13T00:40:27.731Z,83.09
2017-11-13T00:41:38.162Z,83.47
2017-11-13T00:42:48.259Z,83.37
2017-11-13T00:43:58.347Z,83.18
2017-11-13T00:45:08.424Z,83.47
2017-11-13T00:46:18.194Z,83.28
2017-11-13T00:47:28.603Z,83.37
2017-11-13T00:48:39.022Z,83.37
2017-11-13T00:49:49.425Z,83.47
2017-11-13T00:50:59.163Z,83.37
2017-11-13T00:52:09.585Z,83.37
2017-11-13T00:53:20.022Z,83.37
2017-11-13T00:54:29.817Z,83.28
2017-11-13T00:55:40.237Z,83.28
2017-11-13T00:56:50.307Z,83.09
2017-11-13T00:58:00.407Z,83.37
2017-11-13T00:59:10.810Z,83.09
2017-11-13T01:00:21.276Z,83.37
2017-11-13T01:01:31.701Z,83.37
2017-11-13T01:02:42.116Z,83.18
2017-11-13T01:03:52.520Z,83.28
2017-11-13T01:05:02.264Z,83.28
2017-11-13T01:06:12.345Z,83.56
2017-11-13T01:07:22.409Z,83.28
2017-11-13T01:08:32.823Z,83.28
2017-11-13T01:09:42.234Z,83.28
2017-11-13T01:10:52.646Z,83.37
2017-11-13T01:12:03.109Z,83.28
2017-11-13T01:13:13.218Z,83.18
2017-11-13T01:14:23.653Z,83.18
2017-11-13T01:15:34.142Z,83.47
2017-11-13T01:16:44.540Z,83.18
2017-11-13T01:17:54.618Z,83.37
2017-11-13T01:19:04.355Z,83.28
2017-11-13T01:20:14.770Z,83.37
2017-11-13T01:21:24.843Z,83.56
2017-11-13T01:22:34.924Z,83.37
2017-11-13T01:23:45.055Z,83.56
2017-11-13T01:24:54.802Z,83.56
2017-11-13T01:26:04.898Z,83.28
2017-11-13T01:27:14.976Z,83.47
2017-11-13T01:28:25.377Z,83.28
2017-11-13T01:29:35.499Z,83.56
2017-11-13T01:30:45.580Z,83.47
2017-11-13T01:31:55.995Z,83.37
2017-11-13T01:33:06.090Z,83.28
2017-11-13T01:34:16.495Z,83.18
2017-11-13T01:35:26.957Z,83.18
2017-11-13T01:36:36.695Z,83.47
2017-11-13T01:37:47.104Z,83.37
2017-11-13T01:38:57.194Z,83.18
2017-11-13T01:40:06.932Z,83.47
2017-11-13T01:41:17.352Z,83.28
2017-11-13T01:42:27.760Z,83.75
2017-11-13T01:43:37.860Z,83.37
2017-11-13T01:44:48.276Z,83.37
2017-11-13T01:45:58.669Z,83.47
2017-11-13T01:47:08.813Z,83.47
2017-11-13T01:48:18.572Z,83.47
2017-11-13T01:49:28.980Z,83.37
2017-11-13T01:50:39.881Z,83.09
2017-11-13T01:51:50.283Z,83.56
2017-11-13T01:53:00.736Z,82.99
2017-11-13T01:54:11.148Z,83.18
2017-11-13T01:55:21.578Z,82.99
2017-11-13T01:56:31.969Z,83.37
2017-11-13T01:57:42.392Z,83.37
2017-11-13T01:58:53.374Z,83.28
2017-11-13T02:00:03.445Z,83.18
2017-11-13T02:01:13.843Z,83.37
2017-11-13T02:02:24.234Z,83.28
2017-11-13T02:03:34.630Z,83.09
2017-11-13T02:04:45.102Z,83.18
2017-11-13T02:05:54.856Z,83.28
2017-11-13T02:07:05.273Z,83.37
2017-11-13T02:08:15.353Z,83.65
2017-11-13T02:09:25.774Z,82.99
2017-11-13T02:10:36.354Z,83.28
2017-11-13T02:11:46.775Z,83.37
2017-11-13T02:12:56.515Z,83.28
2017-11-13T02:14:06.601Z,83.18
2017-11-13T02:15:17.030Z,83.37
2017-11-13T02:16:27.133Z,83.18
2017-11-13T02:17:37.598Z,83.37
2017-11-13T02:18:48.036Z,83.18
2017-11-13T02:19:58.455Z,83.28
2017-11-13T02:21:08.875Z,83.47
2017-11-13T02:22:18.946Z,83.42
2017-11-13T02:23:29.367Z,83.33
2017-11-13T02:24:39.457Z,83.37
2017-11-13T02:25:49.852Z,83.14
2017-11-13T02:26:59.926Z,83.14
2017-11-13T02:28:10.048Z,83.42
2017-11-13T02:29:20.474Z,83.33
2017-11-13T02:30:30.918Z,83.33
2017-11-13T02:31:41.328Z,83.33
2017-11-13T02:32:51.405Z,83.33
2017-11-13T02:34:01.867Z,83.75
2017-11-13T02:35:11.942Z,83.23
2017-11-13T02:36:21.351Z,83.62
2017-11-13T02:37:31.432Z,83.62
2017-11-13T02:38:41.850Z,83.23
2017-11-13T02:39:51.590Z,83.14
2017-11-13T02:41:01.665Z,82.95
2017-11-13T02:42:12.084Z,83.04
2017-11-13T02:43:22.494Z,82.95
2017-11-13T02:44:32.564Z,83.23
2017-11-13T02:45:42.735Z,83.23
2017-11-13T02:46:52.492Z,83.23
2017-11-13T02:48:02.578Z,83.23
2017-11-13T02:49:12.989Z,83.14
2017-11-13T02:50:23.407Z,83.14
2017-11-13T02:51:33.479Z,83.14
2017-11-13T02:52:43.901Z,83.23
2017-11-13T02:53:53.979Z,83.14
2017-11-13T02:55:04.393Z,83.33
2017-11-13T02:56:14.799Z,83.33
2017-11-13T02:57:24.890Z,83.42
2017-11-13T02:58:34.964Z,83.14
2017-11-13T02:59:45.399Z,83.23
2017-11-13T03:00:55.144Z,83.33
2017-11-13T03:02:05.557Z,83.33
2017-11-13T03:33:09.477Z,79.12
2017-11-13T03:34:19.501Z,79.6
2017-11-13T03:35:28.888Z,80.74
2017-11-13T03:36:38.988Z,81.21
2017-11-13T03:37:49.420Z,82.45
2017-11-13T03:38:59.556Z,82.07
2017-11-13T03:40:09.958Z,83.2
2017-11-13T03:41:20.370Z,83.11
2017-11-13T03:42:30.446Z,83.2
2017-11-13T03:43:40.851Z,83.59
2017-11-13T03:44:50.963Z,84.2
2017-11-13T03:46:01.036Z,83.91
2017-11-13T03:47:11.108Z,84.2
2017-11-13T03:48:21.185Z,84.01
2017-11-13T03:49:31.275Z,83.72
2017-11-13T03:50:41.677Z,83.72
2017-11-13T03:51:52.076Z,83.95
2017-11-13T03:53:02.492Z,83.76
2017-11-13T03:54:12.584Z,83.48
2017-11-13T03:55:22.658Z,83.39
2017-11-13T03:56:33.115Z,84.14
2017-11-13T03:57:43.519Z,83.48
2017-11-13T03:58:53.606Z,83.39
2017-11-13T04:00:03.689Z,83.29
2017-11-13T04:01:13.755Z,83.14
2017-11-13T04:02:23.568Z,83.04
2017-11-13T04:03:33.987Z,83.23
2017-11-13T04:04:44.070Z,83.14
2017-11-13T04:05:54.482Z,82.95
2017-11-13T04:07:04.561Z,83.04
2017-11-13T04:08:14.699Z,82.86
2017-11-13T04:09:25.100Z,83.04
2017-11-13T04:10:35.504Z,83.04
2017-11-13T04:11:45.594Z,83.52
2017-11-13T04:12:55.984Z,83.42
2017-11-13T04:14:06.403Z,83.42
2017-11-13T04:15:16.797Z,83.42
2017-11-13T04:16:27.216Z,83.33
2017-11-13T04:17:37.637Z,83.23
2017-11-13T04:18:47.388Z,83.42
2017-11-13T04:19:57.521Z,83.23
2017-11-13T04:21:07.929Z,83.23
2017-11-13T04:22:18.348Z,83.33
2017-11-13T04:23:28.105Z,83.04
2017-11-13T04:24:37.859Z,82.95
2017-11-13T04:25:48.318Z,83.14
2017-11-13T04:26:58.721Z,83.04
2017-11-13T04:28:08.804Z,83.33
2017-11-13T04:29:18.881Z,83.33
2017-11-13T04:30:28.952Z,83.14
2017-11-13T04:31:39.354Z,83.14
2017-11-13T04:32:49.769Z,83.14
2017-11-13T04:34:00.171Z,82.95
2017-11-13T04:35:10.240Z,83.14
2017-11-13T04:36:19.976Z,83.14
2017-11-13T04:37:30.449Z,83.14
2017-11-13T04:38:40.934Z,83.33
2017-11-13T04:39:51.345Z,83.04
2017-11-13T04:41:01.440Z,83.33
2017-11-13T04:42:11.859Z,83.04
2017-11-13T04:43:21.948Z,83.14
2017-11-13T04:44:32.005Z,83.33
2017-11-13T04:45:42.429Z,83.42
2017-11-13T04:46:52.520Z,83.42
2017-11-13T04:48:02.926Z,83.04
2017-11-13T04:49:13.043Z,83.14
2017-11-13T04:50:23.453Z,83.42
2017-11-13T04:51:33.854Z,83.42
2017-11-13T04:52:43.935Z,83.42
2017-11-13T04:53:54.353Z,83.33
2017-11-13T04:55:04.435Z,83.42
2017-11-13T04:56:14.848Z,83.14
2017-11-13T04:57:24.924Z,83.19
2017-11-13T04:58:35.016Z,83.42
2017-11-13T04:59:45.116Z,83.39
2017-11-13T05:00:55.188Z,83.42
2017-11-13T05:02:05.280Z,83.23
2017-11-13T05:03:15.405Z,83.39
2017-11-13T05:04:25.808Z,83.48
2017-11-13T05:05:36.264Z,82.86
2017-11-13T05:06:46.046Z,82.81
2017-11-13T05:07:56.451Z,83.29
2017-11-13T05:09:06.865Z,83.1
2017-11-13T05:10:17.287Z,83.48
2017-11-13T05:11:27.380Z,83.1
2017-11-13T05:12:37.837Z,82.91
2017-11-13T05:13:48.267Z,83.29
2017-11-13T05:14:58.685Z,83.48
2017-11-13T05:16:08.757Z,83.39
2017-11-13T05:17:18.839Z,83.39
2017-11-13T05:18:28.580Z,83.1
2017-11-13T05:19:38.996Z,83.29
2017-11-13T05:20:49.060Z,83.29
2017-11-13T05:21:59.471Z,83.29
2017-11-13T05:23:08.882Z,83.39
2017-11-13T05:24:18.981Z,83
2017-11-13T05:25:29.408Z,83.39
2017-11-13T05:26:39.864Z,83.29
2017-11-13T05:27:50.279Z,83.19
2017-11-13T05:29:00.708Z,83.29
2017-11-13T05:30:10.456Z,82.91
2017-11-13T05:31:20.890Z,83.29
2017-11-13T05:32:30.975Z,83.29
2017-11-13T05:33:41.383Z,83.48
2017-11-13T05:34:51.460Z,83.29
2017-11-13T05:36:01.550Z,83.39
2017-11-13T05:37:11.635Z,82.91
2017-11-13T05:38:22.055Z,82.91
2017-11-13T05:39:32.471Z,83.19
2017-11-13T05:40:42.867Z,82.91
2017-11-13T05:41:53.271Z,83.39
2017-11-13T05:43:02.682Z,82.91
2017-11-13T05:44:12.425Z,82.91
2017-11-13T05:45:22.849Z,82.91
2017-11-13T05:46:32.927Z,83.39
2017-11-13T05:47:43.010Z,82.91
2017-11-13T05:48:53.426Z,82.71
2017-11-13T05:50:03.497Z,83
2017-11-13T05:51:13.576Z,82.91
2017-11-13T05:52:23.660Z,83.39
2017-11-13T05:53:34.053Z,82.81
2017-11-13T05:54:44.160Z,83.29
2017-11-13T05:55:54.560Z,83.48
2017-11-13T05:57:05.216Z,82.81
2017-11-13T05:58:15.632Z,83.39
2017-11-13T05:59:25.367Z,83.39
2017-11-13T06:00:35.760Z,83.39
2017-11-13T06:01:45.840Z,82.71
2017-11-13T06:02:56.256Z,82.91
2017-11-13T06:04:06.359Z,83
2017-11-13T06:05:16.436Z,82.71
2017-11-13T06:06:26.511Z,83.1
2017-11-13T06:07:36.914Z,83.1
2017-11-13T06:08:47.006Z,82.91
2017-11-13T06:09:57.404Z,82.91
2017-11-13T06:11:07.476Z,83
2017-11-13T06:12:17.913Z,82.91
2017-11-13T06:13:27.985Z,82.81
2017-11-13T06:14:38.055Z,82.91
2017-11-13T06:15:48.131Z,82.81
2017-11-13T06:16:58.590Z,83.1
2017-11-13T06:18:08.645Z,82.71
2017-11-13T06:19:19.052Z,82.71
2017-11-13T06:20:29.121Z,82.91
2017-11-13T06:21:39.210Z,83
2017-11-13T06:22:49.770Z,83.1
2017-11-13T06:23:59.844Z,82.91
2017-11-13T06:25:10.261Z,83.19
2017-11-13T06:26:20.335Z,82.43
2017-11-13T06:27:30.421Z,83.29
2017-11-13T06:28:40.164Z,82.43
2017-11-13T06:29:49.898Z,82.34
2017-11-13T06:31:00.308Z,82.53
2017-11-13T06:32:10.739Z,82.43
2017-11-13T06:33:21.188Z,82.53
2017-11-13T06:34:31.319Z,82.34
2017-11-13T06:35:41.416Z,82.71
2017-11-13T06:36:51.522Z,82.62
2017-11-13T06:38:01.270Z,82.67
2017-11-13T06:39:11.707Z,82.62
2017-11-13T06:40:21.827Z,82.53
2017-11-13T06:41:31.896Z,82.86
2017-11-13T06:42:42.306Z,82.86
2017-11-13T06:43:52.382Z,82.86
2017-11-13T06:45:02.786Z,82.28
2017-11-13T06:46:12.896Z,82.67
2017-11-13T06:47:23.327Z,82.76
2017-11-13T06:48:33.746Z,82.48
2017-11-13T06:49:43.812Z,82
2017-11-13T06:50:53.905Z,82
2017-11-13T06:52:04.320Z,82.19
2017-11-13T06:53:14.407Z,82.19
2017-11-13T06:54:24.497Z,82.19
2017-11-13T06:55:34.926Z,81.9
2017-11-13T06:56:45.350Z,81.81
2017-11-13T06:57:55.761Z,82.28
2017-11-13T06:59:05.833Z,82.09
2017-11-13T07:00:15.909Z,82.09
2017-11-13T07:01:25.994Z,82
2017-11-13T07:02:36.075Z,82.09
2017-11-13T07:03:46.143Z,81.9
2017-11-13T07:04:56.548Z,82.28
2017-11-13T07:06:06.962Z,82.19
2017-11-13T07:07:17.030Z,82
2017-11-13T07:08:27.449Z,81.9
2017-11-13T07:09:37.861Z,82.28
2017-11-13T07:10:47.964Z,82.14
2017-11-13T07:11:58.059Z,82.09
2017-11-13T07:13:07.822Z,81.71
2017-11-13T07:14:18.231Z,82.09
2017-11-13T07:15:28.376Z,82.23
2017-11-13T07:16:38.460Z,82.48
2017-11-13T07:17:48.870Z,82.61
2017-11-13T07:18:59.287Z,82.42
2017-11-13T07:20:09.355Z,82.32
2017-11-13T07:21:18.833Z,81.95
2017-11-13T07:22:29.229Z,82.51
2017-11-13T07:23:39.649Z,82.51
2017-11-13T07:24:49.741Z,82.42
2017-11-13T07:25:59.827Z,81.95
2017-11-13T07:27:09.912Z,81.95
2017-11-13T07:28:20.326Z,82.04
2017-11-13T07:29:30.406Z,81.95
2017-11-13T07:30:40.833Z,81.95
2017-11-13T07:31:50.947Z,82.51
2017-11-13T07:33:01.368Z,82.04
2017-11-13T07:34:11.444Z,82.23
2017-11-13T07:35:21.182Z,82.23
2017-11-13T07:36:31.577Z,82.23
2017-11-13T07:37:42.006Z,82.19
2017-11-13T07:38:52.488Z,82.14
2017-11-13T07:40:02.571Z,82.23
2017-11-13T07:41:12.995Z,82.04
2017-11-13T07:42:23.060Z,82.42
2017-11-13T07:43:33.144Z,82.42
2017-11-13T07:44:42.994Z,81.95
2017-11-13T07:45:53.403Z,81.95
2017-11-13T07:47:03.820Z,81.85
2017-11-13T07:48:14.222Z,82.23
2017-11-13T07:49:24.638Z,81.85
2017-11-13T07:50:34.790Z,81.95
2017-11-13T07:51:45.218Z,82.04
2017-11-13T07:52:54.977Z,82.32
2017-11-13T07:54:05.414Z,82.14
2017-11-13T07:55:15.160Z,82.23
2017-11-13T07:56:25.576Z,82.23
2017-11-13T07:57:36.080Z,81.85
2017-11-13T07:58:46.494Z,81.95
2017-11-13T07:59:56.988Z,82.42
2017-11-13T08:01:07.074Z,82.14
2017-11-13T08:02:17.157Z,82.14
2017-11-13T08:03:27.577Z,82.14
2017-11-13T08:04:37.999Z,81.95
2017-11-13T08:05:48.479Z,82.04
2017-11-13T08:06:58.564Z,81.85
2017-11-13T08:08:08.975Z,82.04
2017-11-13T08:09:19.378Z,81.95
2017-11-13T08:10:29.451Z,82.23
2017-11-13T08:11:39.549Z,82.42
2017-11-13T08:12:49.613Z,82.14
2017-11-13T08:14:00.030Z,82.04
2017-11-13T08:15:10.099Z,82.23
2017-11-13T08:16:19.840Z,82.42
2017-11-13T08:17:30.247Z,82.32
2017-11-13T08:18:40.326Z,82.14
2017-11-13T08:19:51.293Z,81.95
2017-11-13T08:21:01.706Z,82.04
2017-11-13T08:22:12.121Z,81.89
2017-11-13T08:23:22.583Z,81.85
2017-11-13T08:24:32.988Z,81.79
2017-11-13T08:25:43.417Z,81.79
2017-11-13T08:26:53.827Z,81.98
2017-11-13T08:28:03.912Z,81.98
2017-11-13T08:29:14.352Z,81.03
2017-11-13T08:30:24.786Z,81.41
2017-11-13T08:31:35.190Z,81.41
2017-11-13T08:32:44.939Z,81.07
2017-11-13T08:33:55.352Z,81.07
2017-11-13T08:35:05.792Z,81.26
2017-11-13T08:36:15.884Z,80.98
2017-11-13T08:37:25.967Z,81.36
2017-11-13T08:38:36.054Z,82.21
2017-11-13T08:39:46.469Z,81.74
2017-11-13T08:40:56.247Z,81.93
2017-11-13T08:42:06.007Z,82.21
2017-11-13T08:43:16.102Z,82.03
2017-11-13T08:44:26.188Z,81.65
2017-11-13T08:45:36.271Z,81.74
2017-11-13T08:46:46.359Z,81.74
2017-11-13T08:47:56.766Z,81.74
2017-11-13T08:49:07.181Z,81.55
2017-11-13T08:50:17.284Z,81.65
2017-11-13T08:51:27.702Z,81.93
2017-11-13T08:52:38.130Z,81.93
2017-11-13T08:53:48.193Z,81.26
2017-11-13T08:54:58.294Z,81.07
2017-11-13T08:56:08.377Z,82.12
2017-11-13T08:57:18.127Z,81.93
2017-11-13T08:58:28.356Z,81.65
2017-11-13T08:59:38.777Z,81.65
2017-11-13T09:00:49.187Z,82.03
2017-11-13T09:01:59.605Z,81.55
2017-11-13T09:03:10.043Z,81.65
2017-11-13T09:04:20.461Z,81.55
2017-11-13T09:05:30.566Z,82.12
2017-11-13T09:06:41.016Z,82.21
2017-11-13T09:07:51.106Z,82.31
2017-11-13T09:09:01.544Z,82.5
2017-11-13T09:10:11.288Z,82.5
2017-11-13T09:11:21.396Z,82.46
2017-11-13T09:12:31.814Z,82.46
2017-11-13T09:13:41.543Z,82.5
2017-11-13T09:14:51.630Z,82.46
2017-11-13T09:16:01.703Z,82.56
2017-11-13T09:17:11.119Z,82.37
2017-11-13T09:18:21.809Z,82.27
2017-11-13T09:19:31.185Z,81.98
2017-11-13T09:20:40.921Z,82.18
2017-11-13T09:21:51.018Z,82.46
2017-11-13T09:23:01.105Z,82.56
2017-11-13T09:24:11.187Z,82.46
2017-11-13T09:25:21.586Z,82.46
2017-11-13T09:26:31.671Z,82.27
2017-11-13T09:27:42.087Z,81.98
2017-11-13T09:28:52.157Z,81.7
2017-11-13T09:30:02.249Z,81.46
2017-11-13T09:31:11.993Z,81.93
2017-11-13T09:32:22.375Z,81.55
2017-11-13T09:33:32.123Z,81.74
2017-11-13T09:34:42.500Z,81.93
2017-11-13T09:35:52.940Z,82.21
2017-11-13T09:37:03.075Z,81.74
2017-11-13T09:38:13.541Z,81.74
2017-11-13T09:39:23.997Z,81.46
2017-11-13T09:40:34.410Z,81.17
2017-11-13T09:41:44.579Z,81.26
2017-11-13T09:42:54.671Z,81.07
2017-11-13T09:44:05.393Z,81.3
2017-11-13T09:45:15.787Z,80.83
2017-11-13T09:46:25.868Z,80.64
2017-11-13T09:47:36.368Z,80.83
2017-11-13T09:48:46.528Z,81.21
2017-11-13T09:49:56.639Z,81.02
2017-11-13T09:51:07.090Z,81.4
2017-11-13T09:52:17.507Z,81.49
2017-11-13T09:53:28.010Z,81.21
2017-11-13T09:54:37.805Z,81.02
2017-11-13T09:55:48.245Z,81.12
2017-11-13T09:56:58.336Z,81.12
2017-11-13T09:58:08.768Z,80.83
2017-11-13T09:59:19.522Z,81.02
2017-11-13T10:00:31.143Z,81.35
2017-11-13T10:01:41.271Z,81.15
2017-11-13T10:02:51.699Z,81.06
2017-11-13T10:04:01.779Z,80.96
2017-11-13T10:05:12.248Z,81.15
2017-11-13T10:06:22.340Z,81.02
2017-11-13T10:07:32.426Z,81.25
2017-11-13T10:08:42.498Z,81.06
2017-11-13T10:09:52.588Z,81.68
2017-11-13T10:11:03.046Z,81.21
2017-11-13T10:12:13.477Z,81.49
2017-11-13T10:13:23.914Z,81.49
2017-11-13T10:14:34.352Z,81.4
2017-11-13T10:15:44.458Z,81.68
2017-11-13T10:16:54.891Z,81.68
2017-11-13T10:18:05.315Z,81.49
2017-11-13T10:19:15.812Z,81.78
2017-11-13T10:20:25.564Z,81.88
2017-11-13T10:21:36.037Z,82.31
2017-11-13T10:22:46.121Z,82.41
2017-11-13T10:23:56.536Z,82.12
2017-11-13T10:25:06.974Z,82.03
2017-11-13T10:26:17.409Z,81.78
2017-11-13T10:27:27.821Z,82.07
2017-11-13T10:28:38.287Z,81.97
2017-11-13T10:29:48.061Z,81.21
2017-11-13T10:30:58.512Z,81.3
2017-11-13T10:32:08.958Z,81.49
2017-11-13T10:33:19.040Z,81.4
2017-11-13T10:34:28.852Z,81.12
2017-11-13T10:35:38.951Z,81.3
2017-11-13T10:36:49.393Z,81.3
2017-11-13T10:37:58.822Z,81.3
2017-11-13T10:39:08.905Z,80.96
2017-11-13T10:40:19.387Z,80.87
2017-11-13T10:41:29.825Z,81.15
2017-11-13T10:42:40.291Z,81.06
2017-11-13T10:43:50.151Z,81.15
2017-11-13T10:45:00.583Z,81.15
2017-11-13T10:46:10.031Z,80.96
2017-11-13T10:47:19.772Z,80.87
2017-11-13T10:48:30.256Z,81.44
2017-11-13T10:49:40.354Z,81.82
2017-11-13T10:50:50.778Z,82.17
2017-11-13T10:52:01.227Z,81.97
2017-11-13T10:53:11.675Z,81.97
2017-11-13T10:54:22.102Z,81.97
2017-11-13T10:55:32.553Z,82.17
2017-11-13T10:56:42.321Z,82.26
2017-11-13T10:57:52.537Z,82.64
2017-11-13T10:59:02.630Z,82.12
2017-11-13T11:00:12.383Z,82.12
2017-11-13T11:01:22.808Z,82.41
2017-11-13T11:02:32.223Z,82.41
2017-11-13T11:03:42.700Z,82.5
2017-11-13T11:04:52.793Z,82.03
2017-11-13T11:06:03.219Z,82.21
2017-11-13T11:07:13.651Z,82.5
2017-11-13T11:08:23.424Z,82.12
2017-11-13T11:09:33.935Z,81.93
2017-11-13T11:10:44.345Z,82.12
2017-11-13T11:11:54.761Z,81.93
2017-11-13T11:13:05.179Z,81.74
2017-11-13T11:14:15.272Z,82.03
2017-11-13T11:15:25.472Z,82.21
2017-11-13T11:16:35.911Z,82.12
2017-11-13T11:17:46.001Z,81.93
2017-11-13T11:18:56.441Z,81.84
2017-11-13T11:20:07.603Z,81.84
2017-11-13T11:21:17.694Z,81.93
2017-11-13T11:22:27.453Z,81.93
2017-11-13T11:23:37.214Z,81.65
2017-11-13T11:24:47.627Z,82.12
2017-11-13T11:25:58.063Z,82.31
2017-11-13T11:27:07.479Z,82.27
2017-11-13T11:28:17.908Z,81.98
2017-11-13T11:29:28.343Z,81.89
2017-11-13T11:30:38.472Z,82.37
2017-11-13T11:31:48.830Z,82.37
2017-11-13T11:32:59.329Z,82.18
2017-11-13T11:34:09.772Z,82.12
2017-11-13T11:35:20.249Z,81.93
2017-11-13T11:36:29.324Z,81.07
2017-11-13T11:37:39.743Z,81.26
2017-11-13T11:38:50.194Z,81.02
2017-11-13T11:40:00.674Z,81.02
2017-11-13T11:41:10.755Z,81.02
2017-11-13T11:42:20.853Z,81.02
2017-11-13T11:43:30.920Z,80.83
2017-11-13T11:44:41.350Z,80.49
2017-11-13T11:45:51.454Z,81.06
2017-11-13T11:47:01.565Z,81.15
2017-11-13T11:48:11.987Z,81.3
2017-11-13T11:49:21.742Z,81.4
2017-11-13T11:50:32.201Z,81.78
2017-11-13T11:51:42.332Z,82.26
2017-11-13T11:52:52.109Z,81.97
2017-11-13T11:54:02.530Z,81.88
2017-11-13T11:55:12.615Z,81.88
2017-11-13T11:56:23.045Z,81.84
2017-11-13T11:57:33.491Z,82.21
2017-11-13T11:58:43.577Z,82.31
2017-11-13T11:59:53.677Z,82.31
2017-11-13T12:01:03.776Z,82.12
2017-11-13T12:02:13.875Z,81.84
2017-11-13T12:03:24.310Z,81.97
2017-11-13T12:04:34.409Z,81.88
2017-11-13T12:05:44.835Z,81.97
2017-11-13T12:06:55.250Z,82.21
2017-11-13T12:08:05.717Z,82.5
2017-11-13T12:09:16.198Z,82.5
2017-11-13T12:10:25.963Z,82.69
2017-11-13T12:11:36.392Z,82.03
2017-11-13T12:12:46.814Z,82.03
2017-11-13T12:13:57.300Z,82.21
2017-11-13T12:15:07.738Z,82.08
2017-11-13T12:16:18.173Z,82.18
2017-11-13T12:17:28.264Z,82.56
2017-11-13T12:18:38.687Z,82.27
2017-11-13T12:19:49.113Z,82.27
2017-11-13T12:20:59.527Z,82.18
2017-11-13T12:22:09.288Z,82.18
2017-11-13T12:23:19.048Z,82.37
2017-11-13T12:24:29.138Z,82.37
2017-11-13T12:25:39.287Z,82.18
2017-11-13T12:26:49.373Z,82.27
2017-11-13T12:28:01.009Z,82.37
2017-11-13T12:29:11.430Z,82.08
2017-11-13T12:30:21.850Z,81.98
2017-11-13T12:31:31.990Z,81.98
2017-11-13T12:32:42.399Z,82.46
2017-11-13T12:33:52.292Z,82.46
2017-11-13T12:35:02.039Z,82.27
2017-11-13T12:36:13.528Z,82.08
2017-11-13T12:37:24.202Z,82.08
2017-11-13T12:38:34.293Z,82.27
2017-11-13T12:39:44.718Z,82.27
2017-11-13T12:40:55.129Z,82.27
2017-11-13T12:42:05.539Z,82.37
2017-11-13T12:43:15.647Z,81.98
2017-11-13T12:44:26.054Z,81.89
2017-11-13T12:45:35.807Z,81.89
2017-11-13T12:46:46.260Z,82.18
2017-11-13T12:47:56.373Z,82.18
2017-11-13T12:49:06.156Z,82.08
2017-11-13T12:50:16.579Z,81.98
2017-11-13T12:51:26.673Z,82.18
2017-11-13T12:52:37.079Z,82.56
2017-11-13T12:53:46.823Z,82.56
2017-11-13T12:54:56.957Z,82.46
2017-11-13T12:56:07.401Z,82.37
2017-11-13T12:57:17.830Z,82.08
2017-11-13T12:58:28.243Z,82.23
2017-11-13T12:59:38.348Z,82.27
2017-11-13T13:00:48.858Z,82.27
2017-11-13T13:01:58.615Z,82.18
2017-11-13T13:03:09.304Z,82.27
2017-11-13T13:04:19.747Z,82.23
2017-11-13T13:05:29.833Z,81.98
2017-11-13T13:06:40.311Z,82.46
2017-11-13T13:07:50.413Z,82.04
2017-11-13T13:09:00.888Z,82.23
2017-11-13T13:10:11.330Z,82.14
2017-11-13T13:11:21.773Z,82.04
2017-11-13T13:12:32.269Z,82.14
2017-11-13T13:13:42.687Z,82.23
2017-11-13T13:14:52.437Z,82.04
2017-11-13T13:16:02.201Z,82.14
2017-11-13T13:17:12.288Z,82.14
2017-11-13T13:18:22.707Z,82.04
2017-11-13T13:19:33.124Z,82.04
2017-11-13T13:20:43.214Z,82.14
2017-11-13T13:21:53.310Z,82.04
2017-11-13T13:23:03.394Z,82.04
2017-11-13T13:24:13.130Z,82.14
2017-11-13T13:25:23.604Z,82.04
2017-11-13T13:26:34.036Z,82.23
2017-11-13T13:27:43.807Z,82.23
2017-11-13T13:28:54.228Z,82.23
2017-11-13T13:30:04.335Z,82.23
2017-11-13T13:31:14.430Z,82.23
2017-11-13T13:32:24.543Z,82.23
2017-11-13T13:33:34.962Z,82.23
2017-11-13T13:34:45.385Z,82.23
2017-11-13T13:35:55.154Z,82.23
2017-11-13T13:37:05.258Z,82.04
2017-11-13T13:38:14.665Z,82.32
2017-11-13T13:39:25.083Z,82.32
2017-11-13T13:40:35.496Z,82.14
2017-11-13T13:41:46.624Z,82.42
2017-11-13T13:42:57.042Z,82.42
2017-11-13T13:44:06.804Z,82.04
2017-11-13T13:45:16.905Z,82.04
2017-11-13T13:46:27.341Z,82.04
2017-11-13T13:47:37.486Z,82.42
2017-11-13T13:48:47.926Z,82.51
2017-11-13T13:49:58.333Z,82.42
2017-11-13T13:51:08.764Z,82.42
2017-11-13T13:52:19.179Z,82.04
2017-11-13T13:53:29.643Z,82.42
2017-11-13T13:54:40.085Z,82.42
2017-11-13T13:55:49.843Z,82.08
2017-11-13T13:56:59.924Z,81.85
2017-11-13T13:58:10.024Z,82.42
2017-11-13T13:59:20.440Z,82.32
2017-11-13T14:00:30.512Z,82.32
2017-11-13T14:01:40.601Z,82.04
2017-11-13T14:02:50.682Z,81.95
2017-11-13T14:04:01.116Z,82.04
2017-11-13T14:05:11.555Z,82.04
2017-11-13T14:06:21.640Z,82.23
2017-11-13T14:07:31.733Z,82.23
2017-11-13T14:08:41.162Z,82.23
2017-11-13T14:09:51.821Z,82.23
2017-11-13T14:11:02.250Z,82.14
2017-11-13T14:12:12.665Z,82.23
2017-11-13T14:13:23.098Z,82.04
2017-11-13T14:14:33.512Z,81.95
2017-11-13T14:15:43.980Z,82.04
2017-11-13T14:16:54.125Z,82.23
2017-11-13T14:18:04.579Z,82.23
2017-11-13T14:19:14.679Z,82.23
2017-11-13T14:20:24.773Z,81.95
2017-11-13T14:21:34.550Z,82.04
2017-11-13T14:22:45.033Z,82.04
2017-11-13T14:23:55.150Z,82.32
2017-11-13T14:25:05.604Z,82.04
2017-11-13T14:26:16.024Z,82.04
2017-11-13T14:27:26.426Z,82.32
2017-11-13T14:28:36.591Z,82.51
2017-11-13T14:29:46.996Z,82.51
2017-11-13T14:30:57.089Z,82.51
2017-11-13T14:32:06.829Z,82.14
2017-11-13T14:33:17.255Z,82.04
2017-11-13T14:34:27.728Z,82.04
2017-11-13T14:35:37.506Z,82.51
2017-11-13T14:36:48.205Z,82.99
2017-11-13T14:37:58.618Z,82.99
2017-11-13T14:39:09.038Z,82.14
2017-11-13T14:40:19.525Z,82.99
2017-11-13T14:41:29.616Z,82.9
2017-11-13T14:42:40.057Z,82.9
2017-11-13T14:43:50.492Z,82.61
2017-11-13T14:45:00.911Z,82.51
2017-11-13T14:46:11.380Z,82.51
2017-11-13T14:47:21.467Z,82.42
2017-11-13T14:48:31.576Z,82.9
2017-11-13T14:49:41.658Z,82.61
2017-11-13T14:50:51.406Z,82.61
2017-11-13T14:52:01.538Z,82.57
2017-11-13T14:53:12.007Z,82.51
2017-11-13T14:54:21.756Z,82.61
2017-11-13T14:55:31.865Z,82.48
2017-11-13T14:56:41.977Z,82.57
2017-11-13T14:57:52.252Z,82.48
2017-11-13T14:59:02.676Z,82.38
2017-11-13T15:00:13.101Z,82.48
2017-11-13T15:01:23.595Z,82.38
2017-11-13T15:02:33.705Z,82.76
2017-11-13T15:03:44.246Z,82.8
2017-11-13T15:04:54.376Z,82.57
2017-11-13T15:06:04.495Z,82.57
2017-11-13T15:07:14.661Z,82.67
2017-11-13T15:08:24.794Z,82.67
2017-11-13T15:09:35.289Z,82.48
2017-11-13T15:10:45.417Z,82.76
2017-11-13T15:11:55.555Z,82.67
2017-11-13T15:13:05.702Z,82.57
2017-11-13T15:14:15.846Z,82.57
2017-11-13T15:15:25.994Z,82.57
2017-11-13T15:16:36.471Z,82.57
2017-11-13T15:17:46.581Z,82.57
2017-11-13T15:18:56.394Z,82.76
2017-11-13T15:20:06.506Z,82.57
2017-11-13T15:21:17.032Z,82.67
2017-11-13T15:22:26.471Z,82.57
2017-11-13T15:23:36.889Z,82.57
2017-11-13T15:24:46.982Z,82.38
2017-11-13T15:25:57.407Z,82.57
2017-11-13T15:27:07.906Z,82.48
2017-11-13T15:28:18.342Z,82.38
2017-11-13T15:29:28.807Z,82.57
2017-11-13T15:30:38.562Z,82.76
2017-11-13T15:31:48.645Z,82.57
2017-11-13T15:32:58.450Z,82.57
2017-11-13T15:34:08.243Z,82.57
2017-11-13T15:35:18.325Z,82.67
2017-11-13T15:36:28.437Z,82.76